F/V Mare Liberum — FVHW — position and weather

sailwx.info

Track history (hours):
 
Tides and Currents Weather Stations Pressure Air Temp Water Temp Dewpoint Dewpoint Depression Visibility Wind Speed Wind Dir Waves Ship Positions

F/V Mare Liberum

Last reported at 2017-Jun-22 22:30 UTC. Time now 2017-Jun-22 22:30 UTC.
Position N 47°02' W 002°19'.

Length 21 m.

Type: Fishing. MMSI: 227426000.

Date/timePositionNaut miles runAvg speedWind from/ knotsBaromVisibWave heightAir tempDewpointWater temp
2017-Jun-22 22:30N 47°02' W 002°19'2 3.9
2017-Jun-22 21:59N 47°01' W 002°22'1 1.1
2017-Jun-22 21:30N 47°01' W 002°23'1 1.2
2017-Jun-22 20:48N 47°01' W 002°24'1 3.1
2017-Jun-22 20:19N 47°00' W 002°26'2 6.2
2017-Jun-22 20:00N 46°59' W 002°29'4 5.5
2017-Jun-22 19:21N 46°57' W 002°33'2 6.8
2017-Jun-22 19:00N 46°56' W 002°36'14 7.4
2017-Jun-22 17:08N 46°51' W 002°55'2 7.3
2017-Jun-22 16:53N 46°50' W 002°57'3 7.4
2017-Jun-22 16:29N 46°49' W 003°01'4 7.7
2017-Jun-22 16:00N 46°47' W 003°06'4 7.9
2017-Jun-22 15:30N 46°45' W 003°11'5 7.9
2017-Jun-22 14:55N 46°44' W 003°17'4 7.9
2017-Jun-22 14:28N 46°42' W 003°22'8 8.2
2017-Jun-22 13:28N 46°39' W 003°33'4 8.6
2017-Jun-22 12:59N 46°37' W 003°38'4 8.6
2017-Jun-22 12:30N 46°35' W 003°44'5 8.6
2017-Jun-22 11:57N 46°33' W 003°50'4 8.6
2017-Jun-22 11:26N 46°31' W 003°56'5 8.6
2017-Jun-22 10:52N 46°29' W 004°02'5 8.5
2017-Jun-22 10:18N 46°27' W 004°09'6 8.7
2017-Jun-22 09:36N 46°25' W 004°17'1 8.7
2017-Jun-22 09:29N 46°24' W 004°18'5 8.6
2017-Jun-22 08:57N 46°22' W 004°24'8 1.2
2017-Jun-22 02:29N 46°25' W 004°34'1 1.3
2017-Jun-22 02:00N 46°25' W 004°35'1 1.5
2017-Jun-22 01:29N 46°26' W 004°35'1 1.5
2017-Jun-22 00:48N 46°27' W 004°36'1 2.1
2017-Jun-22 00:31N 46°27' W 004°37'1 2.1
2017-Jun-22 00:00N 46°27' W 004°39'1 1.7
2017-Jun-21 23:30N 46°27' W 004°40'1 1.8
2017-Jun-21 23:00N 46°26' W 004°40'1 1.2
2017-Jun-21 22:30N 46°26' W 004°41'4 8.2
2017-Jun-21 22:00N 46°24' W 004°36'0 0.2
2017-Jun-21 21:30N 46°24' W 004°36'0 0.3
2017-Jun-21 21:00N 46°24' W 004°35'0 0.4
2017-Jun-21 20:29N 46°24' W 004°35'0 0.5
2017-Jun-21 20:00N 46°24' W 004°35'0 0.6
2017-Jun-21 19:30N 46°24' W 004°35'0 0.7
2017-Jun-21 19:00N 46°25' W 004°34'0 0.8
2017-Jun-21 18:30N 46°25' W 004°34'0 0.8
2017-Jun-21 18:00N 46°25' W 004°34'0 0.9
2017-Jun-21 17:30N 46°26' W 004°34'1 1.9
2017-Jun-21 17:00N 46°25' W 004°33'2 4.3
2017-Jun-21 16:29N 46°24' W 004°30'2 4.7
2017-Jun-21 16:00N 46°22' W 004°28'2 1.7
2017-Jun-21 15:01N 46°21' W 004°26'0 0.4
2017-Jun-21 15:00N 46°21' W 004°26'2 1.4
2017-Jun-21 13:54N 46°21' W 004°24'1 1.6
2017-Jun-21 13:13N 46°20' W 004°23'2 1.0
2017-Jun-21 11:44N 46°20' W 004°20'0 1.4
2017-Jun-21 11:28N 46°20' W 004°20'2 1.7
2017-Jun-21 10:13N 46°21' W 004°23'14 7.3
2017-Jun-21 08:21N 46°27' W 004°40'1 1.6
2017-Jun-21 07:57N 46°27' W 004°41'1 1.7
2017-Jun-21 07:30N 46°26' W 004°42'1 1.6
2017-Jun-21 06:51N 46°25' W 004°42'5 1.2
2017-Jun-21 02:24N 46°27' W 004°35'0 0.1
2017-Jun-21 01:02N 46°27' W 004°34'0 0.2
2017-Jun-21 00:49N 46°27' W 004°34'0 0.2
2017-Jun-21 00:23N 46°27' W 004°34'0 0.2
2017-Jun-20 23:55N 46°27' W 004°35'0 0.1
2017-Jun-20 23:30N 46°27' W 004°35'0 0.0
2017-Jun-20 22:57N 46°27' W 004°35'0 0.0
2017-Jun-20 22:30N 46°27' W 004°35'0 0.0
2017-Jun-20 22:00N 46°27' W 004°35'0 0.1
2017-Jun-20 21:27N 46°27' W 004°35'0 0.2
2017-Jun-20 21:00N 46°27' W 004°35'0 0.2
2017-Jun-20 20:26N 46°27' W 004°35'0 0.0
2017-Jun-20 19:59N 46°27' W 004°35'1 0.6
2017-Jun-20 18:49N 46°27' W 004°35'2 6.9
2017-Jun-20 18:30N 46°24' W 004°34'4 7.6
2017-Jun-20 18:00N 46°27' W 004°38'3 5.0
2017-Jun-20 17:27N 46°26' W 004°41'3 7.5
2017-Jun-20 17:00N 46°30' W 004°40'1 1.6
2017-Jun-20 16:30N 46°29' W 004°39'1 2.0
2017-Jun-20 16:00N 46°28' W 004°38'1 2.1
2017-Jun-20 15:30N 46°28' W 004°37'1 2.0
2017-Jun-20 14:50N 46°27' W 004°35'2 1.9
2017-Jun-20 14:00N 46°26' W 004°34'1 2.0
2017-Jun-20 13:27N 46°25' W 004°33'2 4.7
2017-Jun-20 13:00N 46°23' W 004°31'2 4.2
2017-Jun-20 12:30N 46°22' W 004°29'3 5.9
2017-Jun-20 12:00N 46°23' W 004°33'1 0.2
2017-Jun-20 09:29N 46°23' W 004°32'2 1.2
2017-Jun-20 08:00N 46°22' W 004°30'2 0.9
2017-Jun-20 05:49N 46°21' W 004°27'1 2.1
2017-Jun-20 05:30N 46°22' W 004°28'0 0.1
2017-Jun-20 03:11N 46°22' W 004°28'0 0.1
2017-Jun-20 02:56N 46°22' W 004°28'0 0.1
2017-Jun-20 02:30N 46°22' W 004°27'0 0.1
2017-Jun-19 21:21N 46°22' W 004°28'0 0.0
2017-Jun-19 21:00N 46°22' W 004°28'0 0.0
2017-Jun-19 20:30N 46°22' W 004°28'0 0.0
2017-Jun-19 20:00N 46°22' W 004°28'3 2.7
2017-Jun-19 18:50N 46°21' W 004°24'4 6.5
2017-Jun-19 18:14N 46°21' W 004°18'0 1.2
2017-Jun-19 17:54N 46°21' W 004°19'89 4.2
2017-Jun-18 20:30N 47°01' W 002°23'4 7.1
2017-Jun-18 19:59N 47°02' W 002°18'0 0.0
2017-Jun-18 19:28N 47°02' W 002°18'1 0.8
2017-Jun-18 18:47N 47°02' W 002°18'310.1
2017-Jun-18 18:30N 47°01' W 002°22'57 9.5
2017-Jun-18 12:31N 46°40' W 003°39'2 9.1
2017-Jun-18 12:19N 46°39' W 003°41'20 9.1
2017-Jun-18 10:06N 46°31' W 004°09'2 9.5
2017-Jun-18 09:55N 46°31' W 004°11'6 9.7
2017-Jun-18 09:18N 46°28' W 004°19'3 9.6
2017-Jun-18 09:00N 46°27' W 004°23'5 9.4
2017-Jun-18 08:30N 46°26' W 004°29'3 0.5
2017-Jun-18 02:42N 46°24' W 004°33'0 0.0
2017-Jun-18 02:14N 46°24' W 004°33'0 0.0
2017-Jun-18 01:37N 46°24' W 004°33'0 0.0
2017-Jun-18 01:28N 46°24' W 004°33'0 0.0
2017-Jun-18 00:25N 46°24' W 004°32'0 0.1
2017-Jun-17 23:44N 46°24' W 004°32'1 0.1
2017-Jun-17 08:30N 46°23' W 004°33'3 0.5
2017-Jun-17 02:36N 46°26' W 004°34'0 0.0
2017-Jun-17 02:30N 46°26' W 004°34'0 0.1
2017-Jun-17 02:00N 46°26' W 004°34'4 0.5
2017-Jun-16 17:38N 46°28' W 004°40'6 0.6
2017-Jun-16 06:31N 46°24' W 004°31'0 0.2
2017-Jun-16 06:05N 46°24' W 004°32'0 0.1
2017-Jun-16 05:55N 46°24' W 004°32'0 0.0
2017-Jun-16 03:47N 46°24' W 004°32'0 0.1
2017-Jun-16 03:24N 46°24' W 004°32'4 0.4
2017-Jun-15 17:32N 46°22' W 004°28'2 1.7
2017-Jun-15 16:19N 46°23' W 004°30'1 1.8
2017-Jun-15 16:00N 46°24' W 004°31'3 4.5
2017-Jun-15 15:22N 46°25' W 004°35'6 4.6
2017-Jun-15 14:07N 46°21' W 004°28'1 1.5
2017-Jun-15 13:27N 46°21' W 004°29'2 1.2
2017-Jun-15 11:28N 46°23' W 004°30'0 0.2
2017-Jun-15 09:32N 46°23' W 004°31'0 1.4
2017-Jun-15 09:17N 46°23' W 004°31'0 1.4
2017-Jun-15 09:00N 46°23' W 004°32'1 1.2
2017-Jun-15 08:25N 46°23' W 004°33'0 1.1
2017-Jun-15 08:00N 46°23' W 004°33'1 1.6
2017-Jun-15 07:24N 46°24' W 004°34'1 1.5
2017-Jun-15 06:57N 46°25' W 004°35'1 1.4
2017-Jun-15 06:23N 46°25' W 004°35'2 4.0
2017-Jun-15 05:53N 46°26' W 004°33'0 0.1
2017-Jun-15 05:14N 46°26' W 004°33'0 0.1
2017-Jun-15 04:57N 46°26' W 004°33'0 0.1
2017-Jun-15 04:29N 46°26' W 004°33'0 0.1
2017-Jun-15 03:55N 46°26' W 004°33'0 0.1
2017-Jun-15 03:29N 46°26' W 004°33'0 0.0
2017-Jun-15 03:00N 46°26' W 004°33'0 0.1
2017-Jun-15 02:29N 46°26' W 004°33'0 0.0
2017-Jun-15 01:56N 46°26' W 004°33'0 0.0
2017-Jun-15 01:26N 46°26' W 004°33'0 0.1
2017-Jun-15 01:00N 46°26' W 004°33'0 0.0
2017-Jun-15 00:30N 46°26' W 004°33'0 0.0
2017-Jun-14 22:59N 46°26' W 004°33'0 0.0
2017-Jun-14 22:29N 46°26' W 004°33'0 0.0
2017-Jun-14 22:00N 46°26' W 004°33'0 0.1
2017-Jun-14 21:29N 46°26' W 004°33'0 0.1
2017-Jun-14 20:23N 46°26' W 004°33'0 0.1
2017-Jun-14 19:51N 46°26' W 004°33'0 0.2
2017-Jun-14 19:26N 46°26' W 004°33'0 0.2
2017-Jun-14 18:52N 46°26' W 004°33'3 7.6
2017-Jun-14 18:28N 46°27' W 004°37'3 6.7
2017-Jun-14 18:00N 46°25' W 004°41'4 2.9
2017-Jun-14 16:36N 46°29' W 004°41'8 0.5
2017-Jun-14 01:09N 46°25' W 004°32'0 0.1
2017-Jun-14 01:00N 46°25' W 004°32'0 0.1
2017-Jun-14 00:27N 46°25' W 004°32'0 0.1
2017-Jun-13 23:33N 46°25' W 004°32'0 0.1
2017-Jun-13 23:24N 46°25' W 004°32'0 0.1
2017-Jun-13 22:58N 46°25' W 004°32'0 0.0
2017-Jun-13 22:23N 46°25' W 004°32'0 0.0
2017-Jun-13 14:33N 46°25' W 004°32'0 0.1
2017-Jun-13 13:51N 46°25' W 004°32'0 0.3
2017-Jun-13 12:51N 46°25' W 004°31'6 3.1
2017-Jun-13 11:03N 46°21' W 004°26'1 8.2
2017-Jun-13 10:56N 46°21' W 004°27'2 3.7
2017-Jun-13 10:22N 46°22' W 004°30'2 5.5
2017-Jun-13 09:56N 46°23' W 004°33'7 4.6
2017-Jun-13 08:24N 46°28' W 004°40'2 3.1
2017-Jun-13 07:52N 46°30' W 004°39'3 5.6
2017-Jun-13 07:25N 46°28' W 004°38'3 4.9
2017-Jun-13 06:55N 46°26' W 004°35'3 4.3
2017-Jun-13 06:16N 46°25' W 004°31'3 8.5
2017-Jun-13 05:56N 46°27' W 004°28'4 8.6
2017-Jun-13 05:30N 46°29' W 004°23'6 8.3
2017-Jun-13 04:50N 46°31' W 004°16'4 8.5
2017-Jun-13 04:24N 46°33' W 004°11'4 8.6
2017-Jun-13 03:56N 46°34' W 004°06'4 8.3
2017-Jun-13 03:29N 46°36' W 004°01'4 8.3
2017-Jun-13 03:00N 46°37' W 003°55'4 8.4
2017-Jun-13 02:29N 46°38' W 003°49'5 8.7
2017-Jun-13 01:55N 46°40' W 003°42'4 8.8
2017-Jun-13 01:30N 46°42' W 003°37'  
Track history (hours):
 
Tides and Currents Weather Stations Pressure Air Temp Water Temp Dewpoint Dewpoint Depression Visibility Wind Speed Wind Dir Waves Ship Positions

F/V Mare Liberum

Last reported at 2017-Jun-22 22:30 UTC. Time now 2017-Jun-22 22:30 UTC.
Position N 47°02' W 002°19'.

Length 21 m.

Type: Fishing. MMSI: 227426000.

Date/timePositionNaut miles runAvg speedWind from/ knotsBaromVisibWave heightAir tempDewpointWater temp
2017-Jun-22 22:30N 47°02' W 002°19'2 3.9
2017-Jun-22 21:59N 47°01' W 002°22'1 1.1
2017-Jun-22 21:30N 47°01' W 002°23'1 1.2
2017-Jun-22 20:48N 47°01' W 002°24'1 3.1
2017-Jun-22 20:19N 47°00' W 002°26'2 6.2
2017-Jun-22 20:00N 46°59' W 002°29'4 5.5
2017-Jun-22 19:21N 46°57' W 002°33'2 6.8
2017-Jun-22 19:00N 46°56' W 002°36'14 7.4
2017-Jun-22 17:08N 46°51' W 002°55'2 7.3
2017-Jun-22 16:53N 46°50' W 002°57'3 7.4
2017-Jun-22 16:29N 46°49' W 003°01'4 7.7
2017-Jun-22 16:00N 46°47' W 003°06'4 7.9
2017-Jun-22 15:30N 46°45' W 003°11'5 7.9
2017-Jun-22 14:55N 46°44' W 003°17'4 7.9
2017-Jun-22 14:28N 46°42' W 003°22'8 8.2
2017-Jun-22 13:28N 46°39' W 003°33'4 8.6
2017-Jun-22 12:59N 46°37' W 003°38'4 8.6
2017-Jun-22 12:30N 46°35' W 003°44'5 8.6
2017-Jun-22 11:57N 46°33' W 003°50'4 8.6
2017-Jun-22 11:26N 46°31' W 003°56'5 8.6
2017-Jun-22 10:52N 46°29' W 004°02'5 8.5
2017-Jun-22 10:18N 46°27' W 004°09'6 8.7
2017-Jun-22 09:36N 46°25' W 004°17'1 8.7
2017-Jun-22 09:29N 46°24' W 004°18'5 8.6
2017-Jun-22 08:57N 46°22' W 004°24'8 1.2
2017-Jun-22 02:29N 46°25' W 004°34'1 1.3
2017-Jun-22 02:00N 46°25' W 004°35'1 1.5
2017-Jun-22 01:29N 46°26' W 004°35'1 1.5
2017-Jun-22 00:48N 46°27' W 004°36'1 2.1
2017-Jun-22 00:31N 46°27' W 004°37'1 2.1
2017-Jun-22 00:00N 46°27' W 004°39'1 1.7
2017-Jun-21 23:30N 46°27' W 004°40'1 1.8
2017-Jun-21 23:00N 46°26' W 004°40'1 1.2
2017-Jun-21 22:30N 46°26' W 004°41'4 8.2
2017-Jun-21 22:00N 46°24' W 004°36'0 0.2
2017-Jun-21 21:30N 46°24' W 004°36'0 0.3
2017-Jun-21 21:00N 46°24' W 004°35'0 0.4
2017-Jun-21 20:29N 46°24' W 004°35'0 0.5
2017-Jun-21 20:00N 46°24' W 004°35'0 0.6
2017-Jun-21 19:30N 46°24' W 004°35'0 0.7
2017-Jun-21 19:00N 46°25' W 004°34'0 0.8
2017-Jun-21 18:30N 46°25' W 004°34'0 0.8
2017-Jun-21 18:00N 46°25' W 004°34'0 0.9
2017-Jun-21 17:30N 46°26' W 004°34'1 1.9
2017-Jun-21 17:00N 46°25' W 004°33'2 4.3
2017-Jun-21 16:29N 46°24' W 004°30'2 4.7
2017-Jun-21 16:00N 46°22' W 004°28'2 1.7
2017-Jun-21 15:01N 46°21' W 004°26'0 0.4
2017-Jun-21 15:00N 46°21' W 004°26'2 1.4
2017-Jun-21 13:54N 46°21' W 004°24'1 1.6
2017-Jun-21 13:13N 46°20' W 004°23'2 1.0
2017-Jun-21 11:44N 46°20' W 004°20'0 1.4
2017-Jun-21 11:28N 46°20' W 004°20'2 1.7
2017-Jun-21 10:13N 46°21' W 004°23'14 7.3
2017-Jun-21 08:21N 46°27' W 004°40'1 1.6
2017-Jun-21 07:57N 46°27' W 004°41'1 1.7
2017-Jun-21 07:30N 46°26' W 004°42'1 1.6
2017-Jun-21 06:51N 46°25' W 004°42'5 1.2
2017-Jun-21 02:24N 46°27' W 004°35'0 0.1
2017-Jun-21 01:02N 46°27' W 004°34'0 0.2
2017-Jun-21 00:49N 46°27' W 004°34'0 0.2
2017-Jun-21 00:23N 46°27' W 004°34'0 0.2
2017-Jun-20 23:55N 46°27' W 004°35'0 0.1
2017-Jun-20 23:30N 46°27' W 004°35'0 0.0
2017-Jun-20 22:57N 46°27' W 004°35'0 0.0
2017-Jun-20 22:30N 46°27' W 004°35'0 0.0
2017-Jun-20 22:00N 46°27' W 004°35'0 0.1
2017-Jun-20 21:27N 46°27' W 004°35'0 0.2
2017-Jun-20 21:00N 46°27' W 004°35'0 0.2
2017-Jun-20 20:26N 46°27' W 004°35'0 0.0
2017-Jun-20 19:59N 46°27' W 004°35'1 0.6
2017-Jun-20 18:49N 46°27' W 004°35'2 6.9
2017-Jun-20 18:30N 46°24' W 004°34'4 7.6
2017-Jun-20 18:00N 46°27' W 004°38'3 5.0
2017-Jun-20 17:27N 46°26' W 004°41'3 7.5
2017-Jun-20 17:00N 46°30' W 004°40'1 1.6
2017-Jun-20 16:30N 46°29' W 004°39'1 2.0
2017-Jun-20 16:00N 46°28' W 004°38'1 2.1
2017-Jun-20 15:30N 46°28' W 004°37'1 2.0
2017-Jun-20 14:50N 46°27' W 004°35'2 1.9
2017-Jun-20 14:00N 46°26' W 004°34'1 2.0
2017-Jun-20 13:27N 46°25' W 004°33'2 4.7
2017-Jun-20 13:00N 46°23' W 004°31'2 4.2
2017-Jun-20 12:30N 46°22' W 004°29'3 5.9
2017-Jun-20 12:00N 46°23' W 004°33'1 0.2
2017-Jun-20 09:29N 46°23' W 004°32'2 1.2
2017-Jun-20 08:00N 46°22' W 004°30'2 0.9
2017-Jun-20 05:49N 46°21' W 004°27'1 2.1
2017-Jun-20 05:30N 46°22' W 004°28'0 0.1
2017-Jun-20 03:11N 46°22' W 004°28'0 0.1
2017-Jun-20 02:56N 46°22' W 004°28'0 0.1
2017-Jun-20 02:30N 46°22' W 004°27'0 0.1
2017-Jun-19 21:21N 46°22' W 004°28'0 0.0
2017-Jun-19 21:00N 46°22' W 004°28'0 0.0
2017-Jun-19 20:30N 46°22' W 004°28'0 0.0
2017-Jun-19 20:00N 46°22' W 004°28'3 2.7
2017-Jun-19 18:50N 46°21' W 004°24'4 6.5
2017-Jun-19 18:14N 46°21' W 004°18'0 1.2
2017-Jun-19 17:54N 46°21' W 004°19'89 4.2
2017-Jun-18 20:30N 47°01' W 002°23'4 7.1
2017-Jun-18 19:59N 47°02' W 002°18'0 0.0
2017-Jun-18 19:28N 47°02' W 002°18'1 0.8
2017-Jun-18 18:47N 47°02' W 002°18'310.1
2017-Jun-18 18:30N 47°01' W 002°22'57 9.5
2017-Jun-18 12:31N 46°40' W 003°39'2 9.1
2017-Jun-18 12:19N 46°39' W 003°41'20 9.1
2017-Jun-18 10:06N 46°31' W 004°09'2 9.5
2017-Jun-18 09:55N 46°31' W 004°11'6 9.7
2017-Jun-18 09:18N 46°28' W 004°19'3 9.6
2017-Jun-18 09:00N 46°27' W 004°23'5 9.4
2017-Jun-18 08:30N 46°26' W 004°29'3 0.5
2017-Jun-18 02:42N 46°24' W 004°33'0 0.0
2017-Jun-18 02:14N 46°24' W 004°33'0 0.0
2017-Jun-18 01:37N 46°24' W 004°33'0 0.0
2017-Jun-18 01:28N 46°24' W 004°33'0 0.0
2017-Jun-18 00:25N 46°24' W 004°32'0 0.1
2017-Jun-17 23:44N 46°24' W 004°32'1 0.1
2017-Jun-17 08:30N 46°23' W 004°33'3 0.5
2017-Jun-17 02:36N 46°26' W 004°34'0 0.0
2017-Jun-17 02:30N 46°26' W 004°34'0 0.1
2017-Jun-17 02:00N 46°26' W 004°34'4 0.5
2017-Jun-16 17:38N 46°28' W 004°40'6 0.6
2017-Jun-16 06:31N 46°24' W 004°31'0 0.2
2017-Jun-16 06:05N 46°24' W 004°32'0 0.1
2017-Jun-16 05:55N 46°24' W 004°32'0 0.0
2017-Jun-16 03:47N 46°24' W 004°32'0 0.1
2017-Jun-16 03:24N 46°24' W 004°32'4 0.4
2017-Jun-15 17:32N 46°22' W 004°28'2 1.7
2017-Jun-15 16:19N 46°23' W 004°30'1 1.8
2017-Jun-15 16:00N 46°24' W 004°31'3 4.5
2017-Jun-15 15:22N 46°25' W 004°35'6 4.6
2017-Jun-15 14:07N 46°21' W 004°28'1 1.5
2017-Jun-15 13:27N 46°21' W 004°29'2 1.2
2017-Jun-15 11:28N 46°23' W 004°30'0 0.2
2017-Jun-15 09:32N 46°23' W 004°31'0 1.4
2017-Jun-15 09:17N 46°23' W 004°31'0 1.4
2017-Jun-15 09:00N 46°23' W 004°32'1 1.2
2017-Jun-15 08:25N 46°23' W 004°33'0 1.1
2017-Jun-15 08:00N 46°23' W 004°33'1 1.6
2017-Jun-15 07:24N 46°24' W 004°34'1 1.5
2017-Jun-15 06:57N 46°25' W 004°35'1 1.4
2017-Jun-15 06:23N 46°25' W 004°35'2 4.0
2017-Jun-15 05:53N 46°26' W 004°33'0 0.1
2017-Jun-15 05:14N 46°26' W 004°33'0 0.1
2017-Jun-15 04:57N 46°26' W 004°33'0 0.1
2017-Jun-15 04:29N 46°26' W 004°33'0 0.1
2017-Jun-15 03:55N 46°26' W 004°33'0 0.1
2017-Jun-15 03:29N 46°26' W 004°33'0 0.0
2017-Jun-15 03:00N 46°26' W 004°33'0 0.1
2017-Jun-15 02:29N 46°26' W 004°33'0 0.0
2017-Jun-15 01:56N 46°26' W 004°33'0 0.0
2017-Jun-15 01:26N 46°26' W 004°33'0 0.1
2017-Jun-15 01:00N 46°26' W 004°33'0 0.0
2017-Jun-15 00:30N 46°26' W 004°33'0 0.0
2017-Jun-14 22:59N 46°26' W 004°33'0 0.0
2017-Jun-14 22:29N 46°26' W 004°33'0 0.0
2017-Jun-14 22:00N 46°26' W 004°33'0 0.1
2017-Jun-14 21:29N 46°26' W 004°33'0 0.1
2017-Jun-14 20:23N 46°26' W 004°33'0 0.1
2017-Jun-14 19:51N 46°26' W 004°33'0 0.2
2017-Jun-14 19:26N 46°26' W 004°33'0 0.2
2017-Jun-14 18:52N 46°26' W 004°33'3 7.6
2017-Jun-14 18:28N 46°27' W 004°37'3 6.7
2017-Jun-14 18:00N 46°25' W 004°41'4 2.9
2017-Jun-14 16:36N 46°29' W 004°41'8 0.5
2017-Jun-14 01:09N 46°25' W 004°32'0 0.1
2017-Jun-14 01:00N 46°25' W 004°32'0 0.1
2017-Jun-14 00:27N 46°25' W 004°32'0 0.1
2017-Jun-13 23:33N 46°25' W 004°32'0 0.1
2017-Jun-13 23:24N 46°25' W 004°32'0 0.1
2017-Jun-13 22:58N 46°25' W 004°32'0 0.0
2017-Jun-13 22:23N 46°25' W 004°32'0 0.0
2017-Jun-13 14:33N 46°25' W 004°32'0 0.1
2017-Jun-13 13:51N 46°25' W 004°32'0 0.3
2017-Jun-13 12:51N 46°25' W 004°31'6 3.1
2017-Jun-13 11:03N 46°21' W 004°26'1 8.2
2017-Jun-13 10:56N 46°21' W 004°27'2 3.7
2017-Jun-13 10:22N 46°22' W 004°30'2 5.5
2017-Jun-13 09:56N 46°23' W 004°33'7 4.6
2017-Jun-13 08:24N 46°28' W 004°40'2 3.1
2017-Jun-13 07:52N 46°30' W 004°39'3 5.6
2017-Jun-13 07:25N 46°28' W 004°38'3 4.9
2017-Jun-13 06:55N 46°26' W 004°35'3 4.3
2017-Jun-13 06:16N 46°25' W 004°31'3 8.5
2017-Jun-13 05:56N 46°27' W 004°28'4 8.6
2017-Jun-13 05:30N 46°29' W 004°23'6 8.3
2017-Jun-13 04:50N 46°31' W 004°16'4 8.5
2017-Jun-13 04:24N 46°33' W 004°11'4 8.6
2017-Jun-13 03:56N 46°34' W 004°06'4 8.3
2017-Jun-13 03:29N 46°36' W 004°01'4 8.3
2017-Jun-13 03:00N 46°37' W 003°55'4 8.4
2017-Jun-13 02:29N 46°38' W 003°49'5 8.7
2017-Jun-13 01:55N 46°40' W 003°42'4 8.8
2017-Jun-13 01:30N 46°42' W 003°37'  

Dump ship's entire track history